Time;durP1;ratioP1;P1;durP2;ratioP2;P2;SDS_P1;SDS_P2;PMS_P1;PMS_P2;Temp;Humidity;BMP_temperature;BMP_pressure;BME280_temperature;BME280_humidity;BME280_pressure;Samples;Min_cycle;Max_cycle;Signal;HPM_P1;HPM_P2
2024/03/05 00:00:29;;;;;;;133.18;36.08;;;8.00;99.90;;;;;;7371290;19;20018;-68
2024/03/05 00:02:55;;;;;;;122.45;36.65;;;8.00;99.90;;;;;;7364904;19;20018;-68
2024/03/05 00:05:22;;;;;;;129.07;36.30;;;8.00;99.90;;;;;;7372504;19;20041;-68
2024/03/05 00:07:48;;;;;;;112.95;34.47;;;8.00;99.90;;;;;;7364637;19;20014;-69
2024/03/05 00:10:14;;;;;;;110.95;35.17;;;8.00;99.90;;;;;;7376365;19;20022;-70
2024/03/05 00:12:40;;;;;;;126.03;36.78;;;8.00;99.90;;;;;;7366352;19;20659;-70
2024/03/05 00:15:07;;;;;;;131.32;37.55;;;8.00;99.90;;;;;;7373011;19;20025;-71
2024/03/05 00:17:33;;;;;;;110.30;34.00;;;8.00;99.90;;;;;;7375393;19;20029;-71
2024/03/05 00:19:59;;;;;;;118.30;34.78;;;8.00;99.90;;;;;;7370697;19;20029;-71
2024/03/05 00:22:25;;;;;;;110.95;34.17;;;8.10;99.90;;;;;;7372537;19;20015;-68
2024/03/05 00:24:52;;;;;;;98.13;33.38;;;8.00;99.90;;;;;;7361648;19;20023;-71
2024/03/05 00:27:19;;;;;;;111.82;36.55;;;8.10;99.90;;;;;;7371788;19;20430;-68
2024/03/05 00:29:45;;;;;;;100.85;32.80;;;8.10;99.90;;;;;;7370574;19;20482;-68
2024/03/05 00:32:11;;;;;;;113.00;34.90;;;8.00;99.90;;;;;;7367949;19;20483;-68
2024/03/05 00:34:38;;;;;;;103.50;34.88;;;8.10;99.90;;;;;;7366848;19;20732;-70
2024/03/05 00:37:07;;;;;;;114.60;37.47;;;8.10;99.90;;;;;;7368378;19;20022;-71
2024/03/05 00:39:33;;;;;;;104.28;35.25;;;8.10;99.90;;;;;;7366280;19;20025;-71
2024/03/05 00:42:03;;;;;;;93.85;32.35;;;8.10;99.90;;;;;;7369626;19;20022;-71
2024/03/05 00:44:29;;;;;;;105.80;34.20;;;8.10;99.90;;;;;;7368688;19;20590;-70
2024/03/05 00:46:56;;;;;;;96.22;32.75;;;8.10;99.90;;;;;;7368724;19;20014;-71
2024/03/05 00:49:23;;;;;;;115.82;33.58;;;8.10;99.90;;;;;;7363636;19;20078;-71
2024/03/05 00:51:49;;;;;;;102.93;32.53;;;8.10;99.90;;;;;;7368220;19;20010;-69
2024/03/05 00:54:16;;;;;;;124.53;34.05;;;8.10;99.90;;;;;;7370821;19;20022;-68
2024/03/05 00:56:42;;;;;;;135.90;36.00;;;8.10;99.90;;;;;;7360175;19;20097;-71
2024/03/05 00:59:08;;;;;;;101.75;33.63;;;8.10;99.90;;;;;;7369917;19;20059;-71
2024/03/05 01:01:34;;;;;;;123.97;35.30;;;8.10;99.90;;;;;;7365953;19;20025;-71
2024/03/05 01:04:00;;;;;;;128.57;36.22;;;8.10;99.90;;;;;;7369267;19;20078;-71
2024/03/05 01:06:27;;;;;;;116.60;34.20;;;8.10;99.90;;;;;;7367992;19;20474;-68
2024/03/05 01:08:53;;;;;;;127.35;35.42;;;8.00;99.90;;;;;;7365685;19;20015;-68
2024/03/05 01:11:19;;;;;;;125.05;35.53;;;8.10;99.90;;;;;;7366880;19;20022;-70
2024/03/05 01:13:45;;;;;;;102.38;33.42;;;8.10;99.90;;;;;;7367265;19;20356;-71
2024/03/05 01:16:12;;;;;;;167.48;37.45;;;8.10;99.90;;;;;;7363890;19;20014;-71
2024/03/05 01:18:38;;;;;;;136.23;36.75;;;8.10;99.90;;;;;;7371003;19;20022;-71
2024/03/05 01:21:08;;;;;;;138.23;36.92;;;8.10;99.90;;;;;;7361144;19;20030;-71
2024/03/05 01:23:38;;;;;;;127.25;35.33;;;8.10;99.90;;;;;;7368638;19;20019;-71
2024/03/05 01:26:07;;;;;;;110.28;33.38;;;8.10;99.90;;;;;;7361443;19;20116;-71
2024/03/05 01:28:37;;;;;;;127.60;35.58;;;8.10;99.90;;;;;;7360434;19;20017;-68
2024/03/05 01:31:04;;;;;;;120.10;35.85;;;8.00;99.90;;;;;;7359533;19;20014;-68
2024/03/05 01:33:30;;;;;;;108.00;32.92;;;8.10;99.90;;;;;;7361455;19;20070;-71
2024/03/05 01:35:57;;;;;;;110.57;33.90;;;8.00;99.90;;;;;;7361487;19;20132;-71
2024/03/05 01:38:23;;;;;;;124.82;36.72;;;8.10;99.90;;;;;;7371513;19;20017;-68
2024/03/05 01:40:49;;;;;;;110.70;36.60;;;8.10;99.90;;;;;;7372949;19;20794;-68
2024/03/05 01:43:19;;;;;;;109.35;35.55;;;8.10;99.90;;;;;;7367256;19;20021;-71
2024/03/05 01:45:45;;;;;;;100.03;35.70;;;8.10;99.90;;;;;;7369976;19;20018;-71
2024/03/05 01:48:13;;;;;;;94.07;34.05;;;8.10;99.90;;;;;;7371929;19;20018;-68
2024/03/05 01:50:39;;;;;;;98.10;34.85;;;8.10;99.90;;;;;;7373688;19;20018;-71
2024/03/05 01:53:10;;;;;;;116.65;36.80;;;8.10;99.90;;;;;;7366300;19;20497;-68
2024/03/05 01:55:43;;;;;;;95.18;35.17;;;8.10;99.90;;;;;;7370914;19;20026;-71
2024/03/05 01:58:13;;;;;;;98.28;33.83;;;8.20;99.90;;;;;;7373672;19;20043;-68
2024/03/05 02:00:39;;;;;;;104.50;34.78;;;8.10;99.90;;;;;;7376975;19;20544;-72
2024/03/05 02:03:06;;;;;;;92.65;32.92;;;8.10;99.90;;;;;;7367374;19;20018;-72
2024/03/05 02:05:33;;;;;;;104.18;35.28;;;8.10;99.90;;;;;;7370069;19;20572;-71
2024/03/05 02:08:01;;;;;;;109.72;34.95;;;8.10;99.90;;;;;;7370118;19;20035;-68
2024/03/05 02:10:27;;;;;;;104.35;35.85;;;8.10;99.90;;;;;;7374061;19;20030;-68
2024/03/05 02:12:54;;;;;;;108.85;37.00;;;8.10;99.90;;;;;;7366246;19;20106;-68
2024/03/05 02:15:21;;;;;;;92.85;33.20;;;8.10;99.90;;;;;;7370395;19;20023;-70
2024/03/05 02:17:47;;;;;;;103.03;35.35;;;8.10;99.90;;;;;;7360893;19;20018;-69
2024/03/05 02:20:13;;;;;;;98.95;36.55;;;8.10;99.90;;;;;;7372976;19;20088;-72
2024/03/05 02:22:41;;;;;;;104.03;37.72;;;8.10;99.90;;;;;;7367159;19;20981;-73
2024/03/05 02:25:08;;;;;;;107.93;36.42;;;8.10;99.90;;;;;;7367126;19;20021;-69
2024/03/05 02:27:36;;;;;;;100.85;37.10;;;8.10;99.90;;;;;;7371186;19;20808;-72
2024/03/05 02:30:10;;;;;;;99.85;37.25;;;8.10;99.90;;;;;;7374837;19;20050;-72
2024/03/05 02:32:40;;;;;;;100.13;37.13;;;8.10;99.90;;;;;;7374616;19;20469;-72
2024/03/05 02:35:08;;;;;;;111.18;36.85;;;8.10;99.90;;;;;;7369028;19;20026;-70
2024/03/05 02:37:38;;;;;;;102.28;36.53;;;8.10;99.90;;;;;;7373668;19;20022;-72
2024/03/05 02:40:08;;;;;;;105.95;38.85;;;8.10;99.90;;;;;;7374044;19;20393;-72
2024/03/05 02:42:44;;;;;;;100.25;37.92;;;8.10;99.90;;;;;;7371141;19;20018;-69
2024/03/05 02:45:15;;;;;;;103.80;36.80;;;8.10;99.90;;;;;;7368960;19;20010;-72
2024/03/05 02:47:41;;;;;;;101.55;36.45;;;8.10;99.90;;;;;;7363192;19;20056;-72
2024/03/05 02:50:11;;;;;;;98.43;38.95;;;8.10;99.90;;;;;;7365381;19;20031;-72
2024/03/05 02:52:40;;;;;;;101.53;35.75;;;8.10;99.90;;;;;;7367430;19;20037;-72
2024/03/05 02:55:11;;;;;;;107.10;38.20;;;8.10;99.90;;;;;;7369624;19;20375;-69
2024/03/05 02:57:41;;;;;;;95.82;37.72;;;8.10;99.90;;;;;;7371392;19;20026;-72
2024/03/05 03:00:09;;;;;;;111.20;38.80;;;8.10;99.90;;;;;;7370299;19;20027;-69
2024/03/05 03:02:35;;;;;;;91.40;35.80;;;8.10;99.90;;;;;;7374429;19;20014;-72
2024/03/05 03:05:01;;;;;;;87.50;33.85;;;8.00;99.90;;;;;;7367960;19;20029;-68
2024/03/05 03:07:30;;;;;;;96.03;35.75;;;8.10;99.90;;;;;;7369122;19;20038;-72
2024/03/05 03:09:56;;;;;;;109.07;38.40;;;8.10;99.90;;;;;;7370983;19;20030;-71
2024/03/05 03:12:23;;;;;;;90.88;36.00;;;8.10;99.90;;;;;;7370530;19;20649;-68
2024/03/05 03:14:49;;;;;;;94.50;36.65;;;8.10;99.90;;;;;;7372147;19;20025;-71
2024/03/05 03:17:15;;;;;;;97.72;37.58;;;8.10;99.90;;;;;;7369704;19;20544;-71
2024/03/05 03:19:42;;;;;;;99.50;36.83;;;8.00;99.90;;;;;;7372031;19;20022;-68
2024/03/05 03:22:09;;;;;;;97.45;37.33;;;8.10;99.90;;;;;;7371022;19;20031;-72
2024/03/05 03:24:35;;;;;;;104.32;38.97;;;8.00;99.90;;;;;;7371513;19;20018;-71
2024/03/05 03:27:01;;;;;;;102.25;38.20;;;8.10;99.90;;;;;;7370959;19;20078;-71
2024/03/05 03:29:27;;;;;;;99.65;39.60;;;8.00;99.90;;;;;;7369917;19;20110;-68
2024/03/05 03:31:56;;;;;;;111.47;41.30;;;8.00;99.90;;;;;;7366612;19;20830;-68
2024/03/05 03:34:22;;;;;;;101.60;37.65;;;8.00;99.90;;;;;;7368676;19;20022;-71
2024/03/05 03:36:48;;;;;;;101.53;36.13;;;8.00;99.90;;;;;;7366975;19;20018;-68
2024/03/05 03:39:23;;;;;;;106.30;37.67;;;8.10;99.90;;;;;;7359782;19;20051;-69
2024/03/05 03:41:53;;;;;;;110.13;40.13;;;8.00;99.90;;;;;;7365769;19;20018;-71
2024/03/05 03:44:20;;;;;;;115.78;40.50;;;8.10;99.90;;;;;;7371371;19;20774;-68
2024/03/05 03:46:47;;;;;;;106.35;39.28;;;8.00;99.90;;;;;;7366042;19;20021;-68
2024/03/05 03:49:14;;;;;;;112.00;40.40;;;8.00;99.90;;;;;;7366969;19;20022;-72
2024/03/05 03:51:40;;;;;;;116.25;41.00;;;8.10;99.90;;;;;;7371050;19;20022;-68
2024/03/05 03:54:11;;;;;;;103.00;39.95;;;8.10;99.90;;;;;;7369587;19;20737;-68
2024/03/05 03:56:38;;;;;;;106.57;40.47;;;8.10;99.90;;;;;;7368648;19;20022;-69
2024/03/05 03:59:05;;;;;;;106.43;40.38;;;8.00;99.90;;;;;;7371127;19;20653;-72
2024/03/05 04:01:31;;;;;;;102.70;38.60;;;8.10;99.90;;;;;;7369297;19;20466;-68
2024/03/05 04:04:02;;;;;;;113.63;42.15;;;8.00;99.90;;;;;;7367488;19;20010;-68
2024/03/05 04:06:29;;;;;;;106.00;39.78;;;8.00;99.90;;;;;;7370108;19;20023;-71
2024/03/05 04:08:57;;;;;;;100.53;38.78;;;8.00;99.90;;;;;;7367710;19;20015;-71
2024/03/05 04:11:23;;;;;;;111.65;40.35;;;8.00;99.90;;;;;;7371132;19;20022;-71
2024/03/05 04:13:49;;;;;;;127.13;41.33;;;8.00;99.90;;;;;;7365520;19;20018;-71
2024/03/05 04:16:15;;;;;;;117.60;42.60;;;8.00;99.90;;;;;;7366684;19;20023;-68
2024/03/05 04:18:42;;;;;;;101.95;39.80;;;8.00;99.90;;;;;;7369392;19;20014;-68
2024/03/05 04:21:08;;;;;;;115.15;40.05;;;8.00;99.90;;;;;;7364417;19;20049;-69
2024/03/05 04:23:37;;;;;;;109.72;39.15;;;8.00;99.90;;;;;;7367525;19;20482;-68
2024/03/05 04:26:08;;;;;;;107.28;40.40;;;8.00;99.90;;;;;;7367311;19;20022;-68
2024/03/05 04:28:48;;;;;;;111.38;38.88;;;7.90;99.90;;;;;;7357188;19;20014;-71
2024/03/05 04:31:19;;;;;;;115.03;40.78;;;7.90;99.90;;;;;;7370734;19;20676;-72
2024/03/05 04:33:48;;;;;;;108.68;40.75;;;7.90;99.90;;;;;;7366210;19;20014;-71
2024/03/05 04:36:17;;;;;;;111.07;39.42;;;7.90;99.90;;;;;;7367703;19;20032;-71
2024/03/05 04:38:44;;;;;;;117.32;39.53;;;7.80;99.90;;;;;;7369488;19;20866;-71
2024/03/05 04:41:13;;;;;;;112.07;39.28;;;7.80;99.90;;;;;;7369193;19;20037;-71
2024/03/05 04:43:39;;;;;;;108.65;39.28;;;7.80;99.90;;;;;;7366877;19;20608;-68
2024/03/05 04:46:06;;;;;;;110.70;41.95;;;7.80;99.90;;;;;;7366390;19;20019;-71
2024/03/05 04:48:33;;;;;;;98.93;37.20;;;7.80;99.90;;;;;;7362674;19;20135;-71
2024/03/05 04:50:59;;;;;;;114.88;40.33;;;7.80;99.90;;;;;;7361154;19;20022;-71
2024/03/05 04:53:25;;;;;;;105.75;39.75;;;7.80;99.90;;;;;;7363362;19;20376;-68
2024/03/05 04:55:52;;;;;;;123.65;41.35;;;7.80;99.90;;;;;;7362592;19;20019;-68
2024/03/05 04:58:18;;;;;;;113.93;42.72;;;7.70;99.90;;;;;;7358305;19;20019;-68
2024/03/05 05:00:44;;;;;;;113.45;40.22;;;7.60;99.90;;;;;;7365094;19;20352;-71
2024/03/05 05:03:10;;;;;;;122.88;41.63;;;7.70;99.90;;;;;;7357547;19;20019;-71
2024/03/05 05:05:39;;;;;;;120.88;40.25;;;7.60;99.90;;;;;;7365356;19;20022;-71
2024/03/05 05:08:06;;;;;;;114.45;39.60;;;7.60;99.90;;;;;;7359085;19;20014;-71
2024/03/05 05:10:33;;;;;;;122.07;41.13;;;7.50;99.90;;;;;;7360251;19;20116;-71
2024/03/05 05:13:00;;;;;;;132.27;40.17;;;7.50;99.90;;;;;;7361301;19;20029;-68
2024/03/05 05:15:26;;;;;;;96.38;36.35;;;7.40;99.90;;;;;;7370208;19;20042;-72
2024/03/05 05:17:53;;;;;;;112.57;37.63;;;7.30;99.90;;;;;;7368033;19;20015;-71
2024/03/05 05:20:19;;;;;;;119.30;37.75;;;7.30;99.90;;;;;;7364553;19;20019;-69
2024/03/05 05:22:45;;;;;;;105.35;35.03;;;7.20;99.90;;;;;;7372284;19;20465;-68
2024/03/05 05:25:14;;;;;;;99.03;35.72;;;7.10;99.90;;;;;;7366804;19;20751;-71
2024/03/05 05:27:41;;;;;;;93.53;36.00;;;7.00;99.90;;;;;;7370681;19;20023;-72
2024/03/05 05:30:08;;;;;;;96.55;33.40;;;7.00;99.90;;;;;;7373513;19;20030;-68
2024/03/05 05:32:34;;;;;;;106.90;37.90;;;6.90;99.90;;;;;;7373453;19;22197;-68
2024/03/05 05:35:05;;;;;;;101.70;36.97;;;6.80;99.90;;;;;;7379416;19;20017;-68
2024/03/05 05:37:32;;;;;;;86.07;33.72;;;6.80;99.90;;;;;;7377022;19;20044;-69
2024/03/05 05:39:58;;;;;;;113.68;35.17;;;6.80;99.90;;;;;;7376058;19;20323;-69
2024/03/05 05:42:24;;;;;;;96.10;32.85;;;6.70;99.90;;;;;;7374959;19;20023;-70
2024/03/05 05:44:52;;;;;;;102.53;36.97;;;6.60;99.90;;;;;;7373893;19;20026;-69
2024/03/05 05:47:19;;;;;;;115.05;37.22;;;6.60;99.90;;;;;;7375864;19;20014;-69
2024/03/05 05:49:46;;;;;;;122.75;40.88;;;6.60;99.90;;;;;;7380097;19;20014;-74
2024/03/05 05:52:13;;;;;;;123.80;41.47;;;6.60;99.90;;;;;;7377813;19;20430;-72
2024/03/05 05:54:47;;;;;;;216.45;44.90;;;6.60;99.90;;;;;;7382149;19;20044;-71
2024/03/05 05:57:14;;;;;;;372.40;55.47;;;6.60;99.90;;;;;;7381170;19;20110;-73
2024/03/05 05:59:43;;;;;;;227.40;46.33;;;6.60;99.90;;;;;;7381615;19;20018;-71
2024/03/05 06:02:11;;;;;;;213.52;41.80;;;6.60;99.90;;;;;;7378507;19;20011;-73
2024/03/05 06:04:37;;;;;;;342.83;51.40;;;6.70;99.90;;;;;;7376010;19;20074;-73
2024/03/05 06:07:04;;;;;;;481.10;66.82;;;6.60;99.90;;;;;;7373823;19;20022;-72
2024/03/05 06:09:34;;;;;;;426.33;61.08;;;6.70;99.90;;;;;;7374547;19;20066;-74
2024/03/05 06:12:03;;;;;;;367.08;54.85;;;6.70;99.90;;;;;;7373882;19;20035;-67
2024/03/05 06:14:31;;;;;;;383.25;51.40;;;6.70;99.90;;;;;;7377647;19;20026;-71
2024/03/05 06:16:58;;;;;;;345.83;53.50;;;6.70;99.90;;;;;;7375456;19;20049;-71
2024/03/05 06:19:24;;;;;;;323.77;48.92;;;6.70;99.90;;;;;;7379533;19;20018;-73
2024/03/05 06:21:55;;;;;;;431.52;59.58;;;6.70;99.90;;;;;;7375004;19;20042;-72
2024/03/05 06:24:21;;;;;;;359.95;55.67;;;6.70;99.90;;;;;;7375706;19;20018;-72
2024/03/05 06:26:47;;;;;;;485.83;62.47;;;6.60;99.90;;;;;;7373832;19;20010;-71
2024/03/05 06:29:14;;;;;;;412.38;55.15;;;6.60;99.90;;;;;;7379601;19;20038;-71
2024/03/05 06:31:40;;;;;;;436.13;56.05;;;6.60;99.90;;;;;;7376791;19;20014;-71
2024/03/05 06:34:09;;;;;;;486.73;59.75;;;6.50;99.90;;;;;;7375373;19;20479;-71
2024/03/05 06:36:37;;;;;;;441.73;53.92;;;6.50;99.90;;;;;;7369214;19;20018;-71
2024/03/05 06:39:08;;;;;;;429.60;53.38;;;6.50;99.90;;;;;;7377543;19;20014;-69
2024/03/05 06:41:37;;;;;;;310.65;46.45;;;6.50;99.90;;;;;;7377818;19;20053;-72
2024/03/05 06:44:14;;;;;;;452.33;55.30;;;6.50;99.90;;;;;;7372374;19;20781;-72
2024/03/05 06:46:44;;;;;;;187.02;36.70;;;6.50;99.90;;;;;;7375443;19;20023;-72
2024/03/05 06:49:14;;;;;;;104.88;32.88;;;6.60;99.90;;;;;;7370476;19;20094;-72
2024/03/05 06:51:52;;;;;;;83.80;30.50;;;6.60;99.90;;;;;;7379909;19;20882;-72
2024/03/05 06:57:03;;;;;;;88.78;33.25;;;6.70;99.90;;;;;;7368495;19;20018;-71
2024/03/05 06:59:30;;;;;;;92.95;31.67;;;6.80;99.90;;;;;;7378035;19;20015;-71
2024/03/05 07:01:56;;;;;;;125.80;34.60;;;6.80;99.90;;;;;;7376893;19;20026;-72
2024/03/05 07:04:23;;;;;;;92.20;32.50;;;6.80;99.90;;;;;;7374595;19;20010;-71
2024/03/05 07:06:49;;;;;;;102.50;32.63;;;6.90;99.90;;;;;;7373608;19;20034;-71
2024/03/05 07:09:15;;;;;;;149.27;36.50;;;7.00;99.90;;;;;;7369419;19;20891;-71
2024/03/05 07:11:43;;;;;;;92.22;30.52;;;6.90;99.90;;;;;;7372614;19;20014;-72
2024/03/05 07:14:09;;;;;;;89.63;32.90;;;7.00;99.90;;;;;;7373916;19;20759;-72
2024/03/05 07:16:36;;;;;;;121.45;35.72;;;7.10;99.90;;;;;;7376447;19;20011;-70
2024/03/05 07:19:03;;;;;;;130.23;38.28;;;7.10;99.90;;;;;;7373124;19;20018;-66
2024/03/05 07:21:30;;;;;;;91.90;34.83;;;7.10;99.90;;;;;;7372958;19;20014;-70
2024/03/05 07:23:58;;;;;;;112.20;38.20;;;7.20;99.90;;;;;;7370224;19;20364;-71
2024/03/05 07:26:25;;;;;;;189.05;45.05;;;7.30;99.90;;;;;;7371810;19;20032;-70
2024/03/05 07:28:52;;;;;;;254.48;48.03;;;7.40;99.90;;;;;;7368245;19;20014;-70
2024/03/05 07:31:18;;;;;;;166.60;45.70;;;7.50;99.90;;;;;;7367441;19;20382;-69
2024/03/05 07:33:44;;;;;;;151.90;45.05;;;7.60;99.90;;;;;;7376269;19;20513;-71
2024/03/05 07:36:11;;;;;;;121.05;43.95;;;7.60;99.90;;;;;;7369387;19;20094;-71
2024/03/05 07:38:38;;;;;;;122.45;45.55;;;7.70;99.90;;;;;;7381298;19;20039;-73
2024/03/05 07:41:07;;;;;;;135.93;43.15;;;7.70;99.90;;;;;;7379826;19;20786;-71
2024/03/05 07:43:36;;;;;;;124.93;43.20;;;7.80;99.90;;;;;;7374383;19;20496;-71
2024/03/05 07:46:03;;;;;;;121.25;42.22;;;7.80;99.90;;;;;;7370176;19;20948;-70
2024/03/05 07:48:33;;;;;;;143.70;44.05;;;7.80;99.90;;;;;;7374099;19;20033;-70
2024/03/05 07:50:59;;;;;;;143.38;48.05;;;7.90;99.90;;;;;;7367820;19;20026;-70
2024/03/05 07:53:25;;;;;;;135.25;47.58;;;7.90;99.90;;;;;;7364733;19;20428;-72
2024/03/05 07:55:52;;;;;;;149.30;49.22;;;8.00;99.90;;;;;;7361918;19;20021;-64
2024/03/05 07:58:19;;;;;;;161.55;51.03;;;8.00;99.90;;;;;;7371348;19;20374;-71
2024/03/05 08:00:45;;;;;;;161.20;50.70;;;8.10;99.90;;;;;;7368776;19;20018;-72
2024/03/05 08:03:12;;;;;;;145.85;51.40;;;8.10;99.90;;;;;;7367294;19;20106;-72
2024/03/05 08:05:41;;;;;;;151.15;53.35;;;8.20;99.90;;;;;;7371655;19;20082;-71
2024/03/05 08:08:09;;;;;;;139.88;51.13;;;8.20;99.90;;;;;;7366448;19;20014;-71
2024/03/05 08:10:38;;;;;;;146.07;52.00;;;8.20;99.90;;;;;;7366078;19;20014;-70
2024/03/05 08:13:05;;;;;;;139.48;52.00;;;8.20;99.90;;;;;;7368017;19;20031;-71
2024/03/05 08:15:31;;;;;;;141.93;49.63;;;8.20;99.90;;;;;;7367462;19;21275;-72
2024/03/05 08:17:58;;;;;;;154.77;52.53;;;8.30;99.90;;;;;;7371388;19;20014;-72
2024/03/05 08:20:26;;;;;;;145.23;52.63;;;8.30;99.90;;;;;;7368091;19;20034;-70
2024/03/05 08:22:54;;;;;;;139.60;48.90;;;8.40;99.90;;;;;;7372470;19;20014;-70
2024/03/05 08:25:21;;;;;;;133.32;51.40;;;8.40;99.90;;;;;;7366439;19;20026;-71
2024/03/05 08:27:58;;;;;;;131.30;50.47;;;8.40;99.90;;;;;;7374900;19;20589;-72
2024/03/05 08:30:29;;;;;;;133.70;50.40;;;8.50;99.90;;;;;;7371939;19;20090;-72
2024/03/05 08:32:56;;;;;;;136.10;51.83;;;8.50;99.90;;;;;;7371774;19;20102;-72
2024/03/05 08:35:22;;;;;;;128.50;49.45;;;8.70;99.90;;;;;;7372068;19;20055;-73
2024/03/05 08:37:49;;;;;;;115.38;46.15;;;8.70;99.90;;;;;;7366655;19;20014;-71
2024/03/05 08:40:19;;;;;;;109.60;48.25;;;8.80;99.90;;;;;;7365812;19;20014;-70
2024/03/05 08:42:47;;;;;;;115.07;47.97;;;8.80;99.90;;;;;;7370905;19;20037;-68
2024/03/05 08:45:19;;;;;;;105.97;45.75;;;8.80;99.90;;;;;;7368408;19;20018;-70
2024/03/05 08:47:50;;;;;;;100.43;47.63;;;8.80;99.90;;;;;;7368938;19;20018;-72
2024/03/05 08:50:17;;;;;;;97.50;44.35;;;8.80;99.90;;;;;;7373895;19;20078;-72
2024/03/05 08:52:43;;;;;;;101.85;44.78;;;8.80;99.90;;;;;;7372845;19;20693;-72
2024/03/05 08:55:15;;;;;;;93.57;44.63;;;8.80;99.90;;;;;;7368827;19;20730;-72
2024/03/05 08:57:42;;;;;;;91.75;44.35;;;8.80;99.90;;;;;;7370844;19;20026;-72
2024/03/05 09:00:33;;;;;;;99.68;46.05;;;8.80;99.90;;;;;;7370292;19;20011;-72
2024/03/05 09:02:59;;;;;;;98.30;45.00;;;8.90;99.90;;;;;;7369410;19;20487;-72
2024/03/05 09:05:25;;;;;;;98.18;45.40;;;8.90;99.90;;;;;;7365397;19;20114;-71
2024/03/05 09:07:52;;;;;;;90.15;43.95;;;9.00;99.90;;;;;;7372080;19;20090;-71
2024/03/05 09:10:18;;;;;;;90.65;43.78;;;9.00;99.90;;;;;;7375434;19;20018;-71
2024/03/05 09:12:44;;;;;;;86.97;41.97;;;9.00;99.90;;;;;;7370327;19;20034;-66
2024/03/05 09:15:12;;;;;;;84.53;43.85;;;9.00;99.90;;;;;;7374352;19;20022;-72
2024/03/05 09:17:38;;;;;;;80.30;39.97;;;9.00;99.90;;;;;;7371423;19;20015;-72
2024/03/05 09:20:14;;;;;;;89.20;43.03;;;9.00;99.90;;;;;;7362748;19;20019;-71
2024/03/05 09:22:44;;;;;;;88.13;43.47;;;9.10;99.90;;;;;;7370312;19;20106;-68
2024/03/05 09:25:15;;;;;;;84.70;43.90;;;9.20;99.90;;;;;;7368076;19;21048;-68
2024/03/05 09:27:42;;;;;;;87.50;42.95;;;9.30;99.90;;;;;;7365325;19;20648;-71
2024/03/05 09:30:09;;;;;;;88.00;43.47;;;9.30;99.90;;;;;;7359771;19;21464;-70
2024/03/05 09:32:36;;;;;;;81.97;43.42;;;9.40;99.90;;;;;;7369474;19;20034;-68
2024/03/05 09:35:08;;;;;;;82.95;41.38;;;9.40;99.90;;;;;;7367054;19;20440;-69
2024/03/05 09:37:38;;;;;;;85.40;41.97;;;9.40;99.90;;;;;;7367280;19;20018;-68
2024/03/05 09:40:16;;;;;;;85.68;42.28;;;9.50;99.90;;;;;;7368192;19;20387;-69
2024/03/05 09:42:44;;;;;;;80.85;42.75;;;9.40;99.90;;;;;;7365791;19;20086;-70
2024/03/05 09:45:14;;;;;;;82.55;44.65;;;9.50;99.90;;;;;;7367403;19;20023;-70
2024/03/05 09:47:42;;;;;;;78.47;41.58;;;9.50;99.90;;;;;;7366342;19;20021;-70
2024/03/05 09:50:12;;;;;;;87.90;43.78;;;9.60;99.90;;;;;;7369983;19;20010;-71
2024/03/05 09:52:39;;;;;;;88.15;42.15;;;9.60;99.90;;;;;;7368668;19;20051;-70
2024/03/05 09:55:06;;;;;;;86.70;45.78;;;9.60;99.90;;;;;;7366808;19;20027;-70
2024/03/05 09:57:38;;;;;;;90.38;44.83;;;9.60;99.90;;;;;;7366460;19;20018;-68
2024/03/05 10:00:15;;;;;;;85.22;43.00;;;9.60;99.90;;;;;;7376384;19;20106;-67
2024/03/05 10:02:41;;;;;;;90.03;43.55;;;9.60;99.90;;;;;;7376065;19;20022;-69
2024/03/05 10:05:10;;;;;;;86.05;49.00;;;9.60;99.90;;;;;;7373559;19;20029;-68
2024/03/05 10:07:36;;;;;;;90.95;55.40;;;9.50;99.90;;;;;;7368123;19;20022;-68
2024/03/05 10:10:07;;;;;;;91.35;56.00;;;9.30;99.90;;;;;;7376052;19;20018;-66
2024/03/05 10:12:34;;;;;;;92.55;54.55;;;9.20;99.90;;;;;;7378141;19;20014;-66
2024/03/05 10:15:24;;;;;;;88.13;52.78;;;9.20;99.90;;;;;;7374059;19;20014;-66
2024/03/05 10:17:52;;;;;;;88.80;54.20;;;9.20;99.90;;;;;;7373226;19;20944;-67
2024/03/05 10:20:31;;;;;;;91.47;55.58;;;9.20;99.90;;;;;;7366876;19;20744;-65
2024/03/05 10:22:59;;;;;;;85.25;53.42;;;9.30;99.90;;;;;;7372496;19;20122;-66
2024/03/05 10:25:27;;;;;;;79.60;51.50;;;9.30;99.90;;;;;;7376759;19;20010;-67
2024/03/05 10:27:55;;;;;;;97.13;55.33;;;9.30;99.90;;;;;;7375717;19;20371;-68
2024/03/05 10:30:31;;;;;;;90.40;54.40;;;9.30;99.90;;;;;;7370438;19;20018;-68
2024/03/05 10:32:59;;;;;;;86.55;53.70;;;9.30;99.90;;;;;;7377620;19;20019;-68
2024/03/05 10:35:26;;;;;;;89.28;53.72;;;9.30;99.90;;;;;;7372214;19;20026;-70
2024/03/05 10:38:00;;;;;;;87.75;55.13;;;9.30;99.90;;;;;;7373791;19;20018;-67
2024/03/05 10:40:34;;;;;;;85.15;50.53;;;9.30;99.90;;;;;;7368512;19;20015;-68
2024/03/05 10:43:08;;;;;;;79.15;49.60;;;9.30;99.90;;;;;;7373636;19;20039;-68
2024/03/05 10:45:39;;;;;;;80.03;48.17;;;9.30;99.90;;;;;;7368061;19;20185;-68
2024/03/05 10:48:10;;;;;;;81.10;49.97;;;9.30;99.90;;;;;;7372848;19;20843;-67
2024/03/05 10:50:38;;;;;;;82.85;49.42;;;9.40;99.90;;;;;;7369312;19;20026;-69
2024/03/05 10:53:08;;;;;;;74.75;48.10;;;9.50;99.90;;;;;;7375235;19;20006;-67
2024/03/05 10:55:36;;;;;;;74.45;47.60;;;9.60;99.90;;;;;;7374135;19;20022;-68
2024/03/05 10:58:31;;;;;;;77.22;44.40;;;9.60;99.90;;;;;;7371280;19;20018;-68
2024/03/05 11:00:58;;;;;;;76.18;46.47;;;9.70;99.90;;;;;;7369757;19;20034;-68
2024/03/05 11:03:38;;;;;;;66.18;43.50;;;9.80;99.90;;;;;;7370195;19;20019;-67
2024/03/05 11:06:08;;;;;;;70.55;43.38;;;9.80;99.90;;;;;;7370031;19;20348;-66
2024/03/05 11:08:36;;;;;;;66.47;44.95;;;9.90;99.90;;;;;;7368920;19;20025;-68
2024/03/05 11:11:07;;;;;;;67.93;43.88;;;9.90;99.90;;;;;;7373628;19;20081;-67
2024/03/05 11:13:35;;;;;;;70.40;41.92;;;9.90;99.90;;;;;;7374527;19;20018;-68
2024/03/05 11:16:06;;;;;;;69.30;42.75;;;9.90;99.90;;;;;;7374449;19;20029;-69
2024/03/05 11:18:33;;;;;;;63.58;40.33;;;9.90;99.90;;;;;;7371772;19;20015;-68
2024/03/05 11:21:10;;;;;;;69.63;40.30;;;9.90;99.90;;;;;;7372145;19;20026;-69
2024/03/05 11:23:57;;;;;;;68.75;42.13;;;9.90;99.90;;;;;;7372896;19;20785;-68
2024/03/05 11:26:26;;;;;;;63.10;42.75;;;9.80;99.90;;;;;;7367622;19;20022;-69
2024/03/05 11:29:06;;;;;;;72.15;42.75;;;9.80;99.90;;;;;;7372440;19;20019;-68
2024/03/05 11:31:32;;;;;;;66.82;41.15;;;9.70;99.90;;;;;;7374494;19;20847;-64
2024/03/05 11:34:02;;;;;;;71.53;42.22;;;9.70;99.90;;;;;;7376036;19;20064;-68
2024/03/05 11:36:33;;;;;;;65.07;41.67;;;9.70;99.90;;;;;;7364417;19;20104;-69
2024/03/05 11:39:03;;;;;;;;;;;9.70;99.90;;;;;;7371262;19;20022;-68
2024/03/05 11:41:32;;;;;;;68.85;44.65;;;9.70;99.90;;;;;;7369840;19;19918;-68
2024/03/05 11:43:59;;;;;;;71.28;41.72;;;9.60;99.90;;;;;;7371044;19;20022;-68
2024/03/05 11:46:52;;;;;;;63.42;42.88;;;9.60;99.90;;;;;;7369593;19;20380;-68
2024/03/05 11:49:18;;;;;;;68.88;41.20;;;9.70;99.90;;;;;;7369450;19;20018;-67
2024/03/05 11:51:46;;;;;;;68.80;41.95;;;9.60;99.90;;;;;;7367789;19;20019;-68
2024/03/05 11:54:14;;;;;;;69.18;43.05;;;9.60;99.90;;;;;;7369036;19;20025;-68
2024/03/05 11:56:43;;;;;;;67.07;43.28;;;9.50;99.90;;;;;;7365754;19;20011;-68
2024/03/05 11:59:10;;;;;;;69.97;42.28;;;9.60;99.90;;;;;;7368534;19;20078;-67
2024/03/05 12:01:38;;;;;;;73.80;43.55;;;9.50;99.90;;;;;;7367998;19;20037;-67
2024/03/05 12:04:09;;;;;;;64.00;39.63;;;9.60;99.90;;;;;;7370662;19;20018;-68
2024/03/05 12:06:40;;;;;;;69.40;43.67;;;9.60;99.90;;;;;;7367657;19;20023;-68
2024/03/05 12:09:18;;;;;;;65.45;42.10;;;9.60;99.90;;;;;;7369838;19;20026;-68
2024/03/05 12:12:11;;;;;;;64.60;40.20;;;9.60;99.90;;;;;;7365076;19;20097;-67
2024/03/05 12:14:58;;;;;;;64.75;39.47;;;9.60;99.90;;;;;;7369637;19;20059;-67
2024/03/05 12:17:25;;;;;;;63.03;37.83;;;9.50;99.90;;;;;;7365623;19;20022;-67
2024/03/05 12:19:58;;;;;;;60.92;38.50;;;9.50;99.90;;;;;;7362569;19;20026;-67
2024/03/05 12:22:25;;;;;;;67.00;43.22;;;9.40;99.90;;;;;;7365594;19;20641;-68
2024/03/05 12:24:51;;;;;;;62.20;36.53;;;9.40;99.90;;;;;;7371811;19;20066;-68
2024/03/05 12:27:17;;;;;;;70.10;41.55;;;9.40;99.90;;;;;;7367424;19;20014;-68
2024/03/05 12:29:44;;;;;;;64.38;40.22;;;9.30;99.90;;;;;;7363223;19;20019;-67
2024/03/05 12:32:12;;;;;;;64.75;41.08;;;9.30;99.90;;;;;;7366522;19;20022;-68
2024/03/05 12:34:47;;;;;;;77.60;43.72;;;9.20;99.90;;;;;;7369871;19;20015;-68
2024/03/05 12:37:13;;;;;;;71.72;43.70;;;9.20;99.90;;;;;;7366387;19;20024;-68
2024/03/05 12:39:40;;;;;;;72.70;43.75;;;9.10;99.90;;;;;;7364912;19;21461;-68